Terminal Aerodrome Forecast
Issued by NWS Flagstaff, AZ

Home | Current Version | Previous Version | Text Only | Print | Product List | Glossary On
Versions: 1 2 3 4 5 6 7 8 9 10 11 12 13 14 15
000
FTUS45 KFGZ 291121
TAFINW
TAF
KINW 291121Z 2912/3012 VRB06KT P6SM FEW050 BKN070
     FM291600 26015G23KT P6SM SCT050 SCT100
     FM300300 24008KT P6SM SCT050 BKN110=

USA.gov is the U.S. government's official web portal to all federal, state and local government web resources and services.